KGPT

Gulfport-Biloxi International Airport

Gulfport, Mississippi, USA
METAR KGPT 180253Z 16007KT 10SM SCT060 BKN075 OVC085 18/18 A3012 RMK AO2 SLP199 T01830178 53007
Observed Flight Rules
Dec-18 @ 02:53 UTC (8 minutes ago) Visual Flight Rules
Wind Visibility Clouds
160° at 7 knots 10 miles
  • Scattered at 6,000' AGL
  • Broken at 7,500' AGL
  • Overcast at 8,500' AGL
Temperatures Readings
Current 18°C / 64°F
Dewpoint 18°C / 64°F
Humidity 100%
Altimeter 30.12" Hg
Pressure 1019.9 hPa
Elevation 14
METAR KGPT 180253Z 16007KT 10SM SCT060 BKN075 OVC085 18/18 A3012 RMK AO2 SLP199 T01830178 53007
Observed Flight Rules
Dec-18 @ 02:53 UTC
(8 minutes ago)
VFR
Wind Visibility
160° at 7 knots 10 miles
Clouds
  • Scattered at 6,000' AGL
  • Broken at 7,500' AGL
  • Overcast at 8,500' AGL
Temperature Dewpoint
18°C / 64°F 18°C / 64°F
Humidity Altimeter Pressure
100% 30.12" Hg 1019.9 hPa